createdAt,value
2018-05-01T00:02:22.599Z,0.50
2018-05-01T00:04:50.521Z,0.60
2018-05-01T00:07:18.473Z,0.50
2018-05-01T00:09:46.369Z,0.60
2018-05-01T00:12:14.330Z,0.50
2018-05-01T00:14:42.234Z,0.80
2018-05-01T00:17:10.955Z,0.50
2018-05-01T00:19:38.850Z,0.50
2018-05-01T00:22:06.817Z,0.50
2018-05-01T00:24:34.719Z,0.50
2018-05-01T00:27:03.435Z,0.40
2018-05-01T00:29:31.322Z,0.60
2018-05-01T00:31:59.277Z,0.62
2018-05-01T00:34:27.185Z,0.40
2018-05-01T00:36:55.130Z,0.45
2018-05-01T00:39:23.030Z,0.40
2018-05-01T00:41:50.993Z,0.50
2018-05-01T00:44:18.937Z,0.70
2018-05-01T00:46:46.909Z,0.40
2018-05-01T00:49:15.396Z,0.57
2018-05-01T00:51:43.505Z,0.50
2018-05-01T00:54:11.946Z,0.40
2018-05-01T00:56:40.718Z,0.40
2018-05-01T00:59:08.660Z,0.60
2018-05-01T01:01:37.404Z,0.50
2018-05-01T01:04:05.306Z,0.40
2018-05-01T01:06:33.286Z,0.47
2018-05-01T01:09:01.959Z,0.50
2018-05-01T01:11:29.936Z,0.50
2018-05-01T01:13:57.867Z,0.40
2018-05-01T01:16:25.825Z,0.47
2018-05-01T01:18:53.718Z,0.60
2018-05-01T01:21:21.722Z,0.40
2018-05-01T01:23:49.628Z,0.40
2018-05-01T01:26:17.586Z,0.40
2018-05-01T01:28:45.487Z,0.50
2018-05-01T01:31:13.458Z,0.52
2018-05-01T01:33:41.369Z,0.40
2018-05-01T01:36:09.472Z,0.40
2018-05-01T01:38:36.869Z,0.50
2018-05-01T01:41:04.192Z,0.40
2018-05-01T01:43:31.576Z,0.60
2018-05-01T01:45:58.907Z,0.40
2018-05-01T01:48:26.292Z,0.40
2018-05-01T01:50:53.619Z,0.43
2018-05-01T01:53:21.004Z,0.40
2018-05-01T01:55:48.326Z,0.57
2018-05-01T01:58:15.711Z,0.50
2018-05-01T02:00:43.037Z,0.60
2018-05-01T02:03:10.417Z,0.40
2018-05-01T02:05:37.759Z,0.45
2018-05-01T02:08:05.148Z,0.50
2018-05-01T02:10:32.478Z,0.40
2018-05-01T02:12:59.875Z,0.80
2018-05-01T02:15:27.202Z,0.40
2018-05-01T02:17:54.585Z,0.40
2018-05-01T02:20:21.911Z,0.40
2018-05-01T02:22:49.297Z,0.50
2018-05-01T02:25:16.617Z,0.40
2018-05-01T02:27:44.006Z,0.40
2018-05-01T02:30:11.321Z,0.40
2018-05-01T02:32:38.716Z,0.40
2018-05-01T02:35:06.054Z,0.40
2018-05-01T02:37:33.445Z,0.40
2018-05-01T02:40:01.537Z,0.50
2018-05-01T02:42:28.927Z,0.50
2018-05-01T02:44:56.264Z,0.50
2018-05-01T02:47:23.646Z,0.40
2018-05-01T02:49:51.067Z,0.40
2018-05-01T02:52:21.644Z,0.40
2018-05-01T02:54:52.415Z,0.60
2018-05-01T02:57:20.715Z,0.40
2018-05-01T02:59:48.091Z,0.40
2018-05-01T03:02:15.419Z,0.40
2018-05-01T03:04:42.802Z,0.40
2018-05-01T03:07:14.975Z,0.43
2018-05-01T03:09:42.404Z,0.40
2018-05-01T03:12:09.738Z,0.60
2018-05-01T03:14:37.882Z,0.40
2018-05-01T03:17:05.203Z,0.40
2018-05-01T03:19:32.597Z,0.50
2018-05-01T03:21:59.916Z,0.40
2018-05-01T03:24:27.289Z,0.40
2018-05-01T03:26:54.625Z,0.40
2018-05-01T03:29:22.007Z,0.40
2018-05-01T03:31:49.347Z,0.40
2018-05-01T03:34:16.729Z,0.40
2018-05-01T03:36:44.063Z,0.40
2018-05-01T03:39:14.001Z,0.40
2018-05-01T03:41:41.501Z,0.40
2018-05-01T03:44:09.681Z,0.40
2018-05-01T03:46:37.766Z,0.37
2018-05-01T03:49:05.174Z,0.40
2018-05-01T03:51:32.511Z,0.40
2018-05-01T03:53:59.830Z,0.40
2018-05-01T03:56:27.210Z,0.32
2018-05-01T03:58:54.542Z,0.50
2018-05-01T04:01:21.934Z,0.40
2018-05-01T04:03:49.346Z,0.37
2018-05-01T04:06:16.693Z,0.40
2018-05-01T04:08:44.880Z,0.40
2018-05-01T04:11:13.025Z,0.40
2018-05-01T04:13:40.344Z,0.40
2018-05-01T04:16:07.711Z,0.40
2018-05-01T04:18:35.028Z,0.40
2018-05-01T04:21:02.405Z,0.50
2018-05-01T04:23:29.746Z,0.43
2018-05-01T04:25:57.124Z,0.50
2018-05-01T04:28:24.441Z,0.55
2018-05-01T04:30:52.630Z,0.40
2018-05-01T04:33:19.945Z,0.40
2018-05-01T04:35:47.325Z,0.50
2018-05-01T04:38:15.413Z,0.40
2018-05-01T04:40:42.782Z,1.50
2018-05-01T04:43:10.102Z,0.50
2018-05-01T04:45:37.482Z,0.50
2018-05-01T04:48:04.876Z,0.40
2018-05-01T04:50:32.205Z,0.50
2018-05-01T04:52:59.588Z,0.52
2018-05-01T04:55:26.913Z,0.50
2018-05-01T04:57:54.296Z,0.40
2018-05-01T05:00:21.624Z,0.60
2018-05-01T05:02:49.012Z,0.60
2018-05-01T05:05:16.340Z,0.50
2018-05-01T05:07:43.728Z,0.60
2018-05-01T05:10:11.050Z,0.70
2018-05-01T05:12:38.425Z,0.57
2018-05-01T05:15:05.923Z,0.68
2018-05-01T05:17:33.302Z,1.60
2018-05-01T05:20:01.389Z,0.85
2018-05-01T05:22:28.919Z,0.85
2018-05-01T05:24:57.152Z,0.70
2018-05-01T05:27:24.549Z,0.70
2018-05-01T05:29:51.877Z,1.00
2018-05-01T05:32:19.257Z,0.82
2018-05-01T05:34:46.589Z,0.90
2018-05-01T05:37:13.975Z,0.90
2018-05-01T05:39:41.298Z,0.70
2018-05-01T05:42:08.696Z,1.05
2018-05-01T05:44:36.784Z,0.80
2018-05-01T05:47:09.609Z,1.17
2018-05-01T05:49:37.011Z,0.95
2018-05-01T05:52:05.224Z,1.20
2018-05-01T05:54:32.544Z,1.23
2018-05-01T05:57:00.640Z,1.30
2018-05-01T05:59:28.035Z,1.00
2018-05-01T06:01:55.378Z,1.70
2018-05-01T06:04:22.761Z,1.70
2018-05-01T06:06:50.603Z,1.20
2018-05-01T06:09:19.267Z,1.60
2018-05-01T06:11:46.597Z,1.65
2018-05-01T06:14:14.738Z,1.52
2018-05-01T06:16:42.062Z,1.98
2018-05-01T06:19:09.462Z,1.30
2018-05-01T06:21:37.757Z,1.70
2018-05-01T06:24:06.408Z,1.58
2018-05-01T06:26:35.631Z,1.80
2018-05-01T06:29:04.385Z,1.30
2018-05-01T06:31:32.877Z,1.20
2018-05-01T06:34:01.689Z,1.62
2018-05-01T06:36:30.280Z,1.48
2018-05-01T06:39:02.632Z,1.87
2018-05-01T06:41:30.292Z,2.65
2018-05-01T06:43:58.354Z,1.55
2018-05-01T06:46:26.255Z,2.45
2018-05-01T06:48:54.525Z,1.73
2018-05-01T06:51:23.393Z,1.67
2018-05-01T06:53:51.234Z,1.50
2018-05-01T06:56:18.803Z,1.52
2018-05-01T06:58:46.201Z,1.48
2018-05-01T07:01:13.531Z,1.60
2018-05-01T07:03:40.933Z,2.12
2018-05-01T07:06:10.147Z,1.80
2018-05-01T07:08:39.004Z,1.58
2018-05-01T07:11:06.843Z,1.80
2018-05-01T07:13:34.346Z,1.60
2018-05-01T07:16:03.194Z,1.30
2018-05-01T07:18:31.205Z,1.87
2018-05-01T07:20:59.723Z,1.62
2018-05-01T07:23:27.214Z,2.28
2018-05-01T07:25:55.798Z,2.37
2018-05-01T07:28:24.410Z,1.67
2018-05-01T07:30:51.949Z,1.63
2018-05-01T07:33:20.638Z,1.90
2018-05-01T07:35:51.479Z,1.70
2018-05-01T07:38:19.465Z,1.47
2018-05-01T07:40:47.937Z,1.97
2018-05-01T07:43:15.662Z,1.60
2018-05-01T07:45:43.214Z,1.60
2018-05-01T07:48:13.096Z,1.63
2018-05-01T07:50:41.572Z,2.30
2018-05-01T07:53:08.906Z,1.57
2018-05-01T07:55:36.302Z,1.60
2018-05-01T07:58:04.478Z,1.57
2018-05-01T08:00:32.646Z,1.30
2018-05-01T08:03:00.813Z,1.97
2018-05-01T08:05:29.015Z,2.08
2018-05-01T08:07:56.350Z,2.03
2018-05-01T08:10:24.509Z,2.30
2018-05-01T08:12:51.857Z,1.55
2018-05-01T08:15:19.250Z,2.25
2018-05-01T08:17:46.598Z,1.75
2018-05-01T08:20:14.704Z,1.90
2018-05-01T08:22:42.100Z,1.87
2018-05-01T08:25:09.448Z,2.83
2018-05-01T08:27:36.854Z,2.20
2018-05-01T08:30:04.189Z,3.00
2018-05-01T08:32:32.342Z,2.20
2018-05-01T08:34:59.728Z,2.23
2018-05-01T08:37:27.889Z,1.90
2018-05-01T08:39:55.245Z,3.00
2018-05-01T08:42:22.803Z,3.07
2018-05-01T08:44:50.313Z,2.80
2018-05-01T08:47:18.821Z,2.60
2018-05-01T08:49:47.345Z,2.50
2018-05-01T08:52:15.010Z,2.60
2018-05-01T08:54:42.398Z,2.80
2018-05-01T08:57:09.973Z,1.67
2018-05-01T08:59:37.766Z,2.57
2018-05-01T09:02:05.597Z,2.87
2018-05-01T09:04:32.941Z,6.20
2018-05-01T09:07:00.359Z,7.00
2018-05-01T09:09:27.751Z,4.00
2018-05-01T09:11:55.789Z,5.20
2018-05-01T09:14:24.409Z,2.27
2018-05-01T09:16:51.831Z,4.07
2018-05-01T09:19:19.248Z,3.00
2018-05-01T09:21:46.581Z,2.70
2018-05-01T09:24:13.995Z,4.23
2018-05-01T09:26:41.585Z,3.50
2018-05-01T09:29:09.018Z,3.90
2018-05-01T09:31:36.370Z,4.30
2018-05-01T09:34:04.792Z,6.57
2018-05-01T09:36:33.034Z,4.53
2018-05-01T09:39:01.249Z,4.30
2018-05-01T09:41:28.670Z,4.20
2018-05-01T09:43:58.178Z,4.97
2018-05-01T09:46:25.596Z,3.00
2018-05-01T09:48:53.030Z,4.30
2018-05-01T09:51:20.369Z,4.30
2018-05-01T09:53:48.406Z,4.80
2018-05-01T09:56:16.316Z,4.20
2018-05-01T09:58:44.303Z,3.77
2018-05-01T10:01:12.225Z,4.40
2018-05-01T10:03:41.021Z,4.50
2018-05-01T10:06:08.949Z,5.43
2018-05-01T10:08:36.908Z,5.07
2018-05-01T10:11:04.816Z,4.13
2018-05-01T10:13:32.769Z,4.60
2018-05-01T10:16:00.684Z,4.90
2018-05-01T10:18:29.448Z,3.87
2018-05-01T10:20:57.349Z,4.47
2018-05-01T10:23:25.334Z,5.03
2018-05-01T10:25:53.298Z,4.53
2018-05-01T10:28:21.274Z,4.60
2018-05-01T10:30:49.225Z,4.53
2018-05-01T10:33:17.205Z,4.50
2018-05-01T10:35:45.308Z,5.80
2018-05-01T10:38:13.201Z,3.93
2018-05-01T10:40:41.171Z,4.23
2018-05-01T10:43:09.170Z,3.70
2018-05-01T10:45:38.122Z,4.20
2018-05-01T10:48:06.088Z,4.17
2018-05-01T10:50:34.130Z,4.10
2018-05-01T10:53:02.290Z,4.73
2018-05-01T10:55:30.253Z,4.47
2018-05-01T10:57:58.938Z,4.20
2018-05-01T11:00:27.662Z,3.60
2018-05-01T11:02:55.562Z,3.70
2018-05-01T11:05:23.576Z,3.90
2018-05-01T11:07:51.480Z,3.47
2018-05-01T11:10:19.626Z,3.60
2018-05-01T11:12:47.622Z,3.70
2018-05-01T11:15:15.578Z,4.50
2018-05-01T11:17:43.472Z,5.33
2018-05-01T11:20:11.353Z,3.97
2018-05-01T11:22:39.317Z,3.70
2018-05-01T11:25:07.225Z,3.90
2018-05-01T11:27:35.936Z,3.20
2018-05-01T11:30:03.923Z,2.73
2018-05-01T11:32:31.916Z,3.00
2018-05-01T11:34:59.922Z,4.57
2018-05-01T11:37:27.882Z,2.90
2018-05-01T11:39:55.900Z,3.33
2018-05-01T11:42:23.877Z,3.10
2018-05-01T11:44:51.820Z,3.03
2018-05-01T11:47:20.508Z,2.80
2018-05-01T11:49:48.455Z,5.00
2018-05-01T11:52:17.190Z,2.57
2018-05-01T11:54:45.139Z,3.63
2018-05-01T11:57:13.105Z,3.30
2018-05-01T11:59:41.036Z,3.00
2018-05-01T12:02:09.038Z,3.53
2018-05-01T12:04:37.702Z,3.60
2018-05-01T12:07:05.695Z,2.97
2018-05-01T12:09:33.713Z,3.60
2018-05-01T12:12:01.619Z,2.70
2018-05-01T12:14:30.369Z,3.03
2018-05-01T12:16:58.308Z,3.50
2018-05-01T12:19:26.281Z,2.93
2018-05-01T12:21:54.213Z,3.60
2018-05-01T12:24:22.984Z,3.43
2018-05-01T12:26:51.348Z,2.53
2018-05-01T12:29:19.356Z,3.10
2018-05-01T12:31:47.253Z,2.97
2018-05-01T12:34:15.249Z,3.60
2018-05-01T12:36:43.219Z,3.80
2018-05-01T12:39:11.178Z,4.20
2018-05-01T12:41:39.157Z,3.77
2018-05-01T12:44:07.210Z,3.50
2018-05-01T12:46:35.117Z,3.60
2018-05-01T12:49:03.073Z,4.30
2018-05-01T12:51:31.005Z,4.67
2018-05-01T12:53:58.986Z,5.30
2018-05-01T12:56:26.901Z,4.20
2018-05-01T12:58:54.865Z,4.50
2018-05-01T13:01:22.765Z,4.30
2018-05-01T13:03:50.728Z,4.70
2018-05-01T13:06:18.651Z,4.00
2018-05-01T13:08:46.613Z,3.70
2018-05-01T13:11:14.527Z,3.30
2018-05-01T13:13:42.438Z,3.40
2018-05-01T13:16:10.395Z,3.00
2018-05-01T13:18:39.076Z,3.70
2018-05-01T13:21:07.800Z,3.53
2018-05-01T13:23:35.719Z,3.53
2018-05-01T13:26:03.733Z,2.93
2018-05-01T13:28:31.633Z,3.07
2018-05-01T13:30:59.591Z,3.37
2018-05-01T13:33:27.533Z,2.83
2018-05-01T13:35:55.537Z,3.00
2018-05-01T13:38:23.454Z,2.93
2018-05-01T13:40:52.192Z,3.40
2018-05-01T13:43:20.089Z,3.73
2018-05-01T13:45:48.058Z,2.90
2018-05-01T13:48:16.813Z,3.50
2018-05-01T13:50:44.886Z,3.33
2018-05-01T13:53:12.845Z,2.97
2018-05-01T13:55:41.557Z,3.40
2018-05-01T13:58:10.383Z,2.57
2018-05-01T14:00:40.006Z,3.10
2018-05-01T14:03:07.914Z,3.30
2018-05-01T14:05:35.884Z,3.10
2018-05-01T14:08:03.804Z,2.83
2018-05-01T14:10:31.762Z,3.97
2018-05-01T14:12:59.674Z,2.63
2018-05-01T14:15:27.637Z,3.50
2018-05-01T14:17:55.540Z,3.17
2018-05-01T14:20:24.368Z,3.90
2018-05-01T14:22:52.348Z,3.87
2018-05-01T14:25:22.807Z,4.50
2018-05-01T14:27:52.165Z,4.77
2018-05-01T14:30:22.889Z,3.90
2018-05-01T14:32:52.191Z,3.63
2018-05-01T14:35:21.063Z,3.03
2018-05-01T14:37:51.284Z,3.20
2018-05-01T14:40:19.718Z,3.07
2018-05-01T14:42:47.753Z,3.40
2018-05-01T14:45:16.426Z,3.10
2018-05-01T14:47:45.563Z,3.30
2018-05-01T14:50:14.302Z,3.10
2018-05-01T14:52:42.229Z,3.57
2018-05-01T14:55:10.960Z,3.53
2018-05-01T14:57:38.881Z,3.80
2018-05-01T15:00:07.640Z,3.20
2018-05-01T15:02:35.558Z,4.30
2018-05-01T15:05:03.560Z,3.30
2018-05-01T15:07:31.465Z,3.17
2018-05-01T15:09:59.421Z,3.23
2018-05-01T15:12:29.827Z,3.13
2018-05-01T15:14:57.816Z,2.87
2018-05-01T15:17:25.722Z,3.13
2018-05-01T15:19:54.461Z,3.33
2018-05-01T15:22:22.360Z,2.90
2018-05-01T15:24:50.334Z,3.40
2018-05-01T15:27:18.288Z,3.50
2018-05-01T15:29:46.410Z,3.67
2018-05-01T15:32:14.305Z,4.00
2018-05-01T15:34:42.360Z,3.40
2018-05-01T15:37:10.283Z,3.07
2018-05-01T15:39:38.259Z,3.97
2018-05-01T15:42:06.195Z,3.50
2018-05-01T15:44:34.171Z,3.20
2018-05-01T15:47:02.118Z,3.50
2018-05-01T15:49:31.516Z,3.03
2018-05-01T15:51:59.522Z,3.77
2018-05-01T15:54:27.482Z,3.70
2018-05-01T15:56:55.423Z,3.03
2018-05-01T15:59:23.422Z,2.83
2018-05-01T16:01:51.515Z,3.00
2018-05-01T16:04:19.538Z,2.97
2018-05-01T16:06:47.971Z,2.53
2018-05-01T16:09:15.909Z,2.87
2018-05-01T16:11:43.893Z,3.47
2018-05-01T16:14:11.901Z,3.80
2018-05-01T16:16:40.638Z,3.37
2018-05-01T16:19:08.553Z,3.20
2018-05-01T16:21:36.571Z,2.80
2018-05-01T16:24:04.524Z,3.60
2018-05-01T16:26:32.481Z,2.53
2018-05-01T16:29:01.159Z,3.30
2018-05-01T16:31:31.021Z,2.90
2018-05-01T16:34:00.059Z,2.87
2018-05-01T16:36:30.651Z,2.53
2018-05-01T16:38:58.700Z,2.57
2018-05-01T16:41:26.645Z,3.40
2018-05-01T16:43:55.326Z,2.40
2018-05-01T16:46:24.083Z,2.33
2018-05-01T16:48:51.986Z,2.20
2018-05-01T16:51:20.725Z,2.60
2018-05-01T16:53:48.636Z,2.30
2018-05-01T16:56:16.637Z,3.10
2018-05-01T16:58:44.549Z,2.30
2018-05-01T17:01:12.511Z,2.50
2018-05-01T17:03:40.487Z,2.10
2018-05-01T17:06:08.473Z,2.17
2018-05-01T17:08:36.414Z,2.17
2018-05-01T17:11:04.424Z,2.30
2018-05-01T17:13:32.335Z,2.87
2018-05-01T17:16:00.341Z,3.10
2018-05-01T17:18:28.278Z,2.27
2018-05-01T17:20:56.925Z,2.10
2018-05-01T17:23:25.578Z,2.60
2018-05-01T17:25:55.932Z,2.70
2018-05-01T17:28:23.867Z,1.95
2018-05-01T17:30:51.829Z,1.63
2018-05-01T17:33:19.812Z,2.17
2018-05-01T17:35:47.810Z,2.13
2018-05-01T17:38:15.741Z,2.30
2018-05-01T17:40:44.551Z,1.70
2018-05-01T17:43:12.550Z,1.70
2018-05-01T17:45:41.404Z,1.70
2018-05-01T17:48:09.313Z,1.70
2018-05-01T17:50:37.292Z,2.40
2018-05-01T17:53:05.984Z,2.10
2018-05-01T17:55:34.723Z,1.90
2018-05-01T17:58:02.627Z,1.50
2018-05-01T18:00:31.356Z,1.80
2018-05-01T18:02:59.297Z,2.20
2018-05-01T18:05:28.034Z,1.73
2018-05-01T18:07:55.955Z,2.25
2018-05-01T18:10:24.697Z,1.75
2018-05-01T18:12:52.599Z,1.55
2018-05-01T18:15:21.325Z,1.90
2018-05-01T18:17:49.270Z,1.90
2018-05-01T18:20:18.006Z,2.08
2018-05-01T18:22:46.220Z,2.30
2018-05-01T18:25:14.992Z,1.62
2018-05-01T18:27:42.906Z,1.73
2018-05-01T18:30:10.877Z,1.77
2018-05-01T18:32:38.905Z,2.17
2018-05-01T18:35:06.852Z,2.10
2018-05-01T18:37:34.758Z,1.90
2018-05-01T18:40:02.725Z,1.95
2018-05-01T18:42:30.629Z,1.90
2018-05-01T18:44:58.579Z,2.10
2018-05-01T18:47:29.483Z,2.40
2018-05-01T18:49:57.391Z,2.50
2018-05-01T18:52:26.104Z,2.45
2018-05-01T18:54:54.054Z,3.20
2018-05-01T18:57:23.891Z,2.55
2018-05-01T18:59:51.795Z,2.83
2018-05-01T19:02:19.796Z,2.50
2018-05-01T19:04:48.509Z,2.70
2018-05-01T19:07:16.471Z,2.95
2018-05-01T19:09:45.408Z,2.70
2018-05-01T19:12:13.510Z,3.00
2018-05-01T19:14:41.485Z,3.20
2018-05-01T19:17:09.521Z,3.03
2018-05-01T19:19:39.898Z,2.17
2018-05-01T19:22:11.947Z,2.67
2018-05-01T19:24:39.833Z,2.40
2018-05-01T19:27:08.630Z,2.30
2018-05-01T19:29:37.282Z,2.83
2018-05-01T19:32:06.510Z,3.70
2018-05-01T19:34:34.587Z,3.15
2018-05-01T19:37:02.610Z,4.03
2018-05-01T19:39:32.256Z,2.83
2018-05-01T19:42:00.558Z,2.40
2018-05-01T19:44:28.476Z,3.03
2018-05-01T19:46:56.481Z,3.45
2018-05-01T19:49:25.483Z,2.53
2018-05-01T19:51:54.207Z,2.90
2018-05-01T19:54:22.470Z,3.50
2018-05-01T19:56:50.533Z,2.70
2018-05-01T19:59:18.422Z,2.72
2018-05-01T20:01:46.382Z,3.83
2018-05-01T20:04:14.329Z,3.00
2018-05-01T20:06:44.099Z,3.40
2018-05-01T20:09:12.011Z,3.58
2018-05-01T20:11:39.994Z,3.10
2018-05-01T20:14:08.219Z,4.00
2018-05-01T20:16:36.970Z,3.95
2018-05-01T20:19:04.914Z,3.62
2018-05-01T20:21:32.863Z,3.58
2018-05-01T20:24:00.769Z,3.55
2018-05-01T20:26:28.842Z,3.40
2018-05-01T20:28:56.828Z,4.25
2018-05-01T20:31:24.809Z,3.45
2018-05-01T20:33:52.761Z,3.60
2018-05-01T20:36:21.155Z,3.17
2018-05-01T20:38:49.157Z,4.30
2018-05-01T20:41:17.130Z,4.00
2018-05-01T20:43:45.046Z,3.50
2018-05-01T20:46:13.126Z,3.78
2018-05-01T20:48:41.035Z,3.30
2018-05-01T20:51:08.972Z,4.10
2018-05-01T20:53:36.870Z,3.45
2018-05-01T20:56:04.894Z,3.60
2018-05-01T20:58:32.782Z,3.70
2018-05-01T21:01:00.730Z,4.30
2018-05-01T21:03:28.649Z,5.62
2018-05-01T21:05:56.606Z,4.80
2018-05-01T21:08:24.528Z,4.97
2018-05-01T21:10:52.529Z,5.05
2018-05-01T21:13:20.429Z,4.75
2018-05-01T21:15:48.374Z,5.60
2018-05-01T21:18:16.310Z,4.45
2018-05-01T21:20:44.272Z,4.53
2018-05-01T21:23:12.174Z,4.90
2018-05-01T21:25:40.140Z,4.82
2018-05-01T21:28:08.269Z,4.87
2018-05-01T21:30:36.230Z,4.35
2018-05-01T21:33:07.593Z,5.28
2018-05-01T21:35:35.737Z,5.40
2018-05-01T21:38:03.711Z,4.50
2018-05-01T21:40:31.611Z,5.95
2018-05-01T21:43:00.395Z,5.47
2018-05-01T21:45:29.065Z,5.80
2018-05-01T21:47:57.016Z,5.55
2018-05-01T21:50:24.913Z,4.55
2018-05-01T21:52:52.872Z,5.57
2018-05-01T21:55:20.764Z,5.35
2018-05-01T21:57:49.471Z,4.95
2018-05-01T22:00:17.438Z,5.18
2018-05-01T22:02:45.389Z,5.85
2018-05-01T22:05:14.070Z,5.25
2018-05-01T22:07:42.064Z,6.62
2018-05-01T22:10:10.001Z,4.53
2018-05-01T22:12:37.975Z,4.57
2018-05-01T22:15:05.986Z,5.18
2018-05-01T22:17:33.972Z,5.12
2018-05-01T22:20:01.855Z,4.30
2018-05-01T22:22:29.817Z,4.10
2018-05-01T22:24:57.731Z,3.83
2018-05-01T22:27:26.486Z,4.28
2018-05-01T22:29:54.373Z,4.22
2018-05-01T22:32:22.337Z,4.20
2018-05-01T22:34:50.225Z,4.07
2018-05-01T22:37:18.177Z,4.45
2018-05-01T22:39:46.069Z,6.28
2018-05-01T22:42:14.785Z,5.70
2018-05-01T22:44:42.692Z,5.57
2018-05-01T22:47:10.636Z,5.95
2018-05-01T22:49:39.285Z,5.03
2018-05-01T22:52:08.010Z,5.82
2018-05-01T22:54:35.923Z,5.62
2018-05-01T22:57:03.891Z,5.72
2018-05-01T22:59:31.803Z,5.53
2018-05-01T23:01:59.744Z,5.12
2018-05-01T23:04:27.650Z,5.00
2018-05-01T23:06:55.600Z,4.53
2018-05-01T23:09:24.270Z,4.87
2018-05-01T23:11:52.222Z,4.22
2018-05-01T23:14:20.129Z,4.75
2018-05-01T23:16:48.847Z,4.82
2018-05-01T23:19:16.754Z,4.57
2018-05-01T23:21:44.711Z,4.60
2018-05-01T23:24:12.623Z,4.57
2018-05-01T23:26:40.602Z,5.65
2018-05-01T23:29:08.496Z,6.07
2018-05-01T23:31:36.450Z,6.03
2018-05-01T23:34:04.357Z,6.25
2018-05-01T23:36:32.306Z,5.70
2018-05-01T23:39:00.211Z,6.15
2018-05-01T23:41:28.155Z,5.20
2018-05-01T23:43:56.043Z,5.68
2018-05-01T23:46:24.061Z,5.75
2018-05-01T23:48:51.969Z,4.90
2018-05-01T23:51:19.936Z,5.15
2018-05-01T23:53:47.835Z,5.55
2018-05-01T23:56:15.813Z,5.28
2018-05-01T23:58:44.470Z,5.68
